Airfield :
LOGIN :

Register | Disclaimer

   EN    FR    IT 

 










Legend :    VFR   Marginal VFR   IFR   Intensive IFR   Very Intensive IFR
Visi :
Ceiling :
>= 8 km
>= 3000ft
5 to 8 km
1000 to 3000 ft
1500m to 5 km
500 to 1000 ft
800 to 1500m
200 to 500 ft
< 800m
< 200 ft
Symbols :   Thunderstorms  Fog  Heavy snow  Heavy precipitations  Wind > 20 kt
SIGMETs :     Misc.  Thunderstorms  Icing  Turbulence  Mountain Waves  Volcanic Ashes






- Airport Elevation : 219 ft
- IATA code : DNR


LFRD - Dinard

CURRENT METAR :
  • 080400Z AUTO 22011KT CAVOK 04/02 Q0995 TEMPO 26020G40KT 2000 TSRAGS BKN010CB

EXPIRED METARs :
  • 080330Z AUTO 21011KT CAVOK 04/02 Q0995 TEMPO 26020G40KT 2000 TSRAGS BKN010CB
  • 080300Z AUTO 23010KT 9999 FEW020 04/02 Q0995 TEMPO 26020G40KT 2000 TSRAGS BKN010CB
  • 080230Z AUTO 24011G21KT 9999 FEW022 BKN027 BKN041 05/02 Q0995 TEMPO 26020G40KT 2000 TSRAGS BKN010CB
  • 080200Z AUTO 24010KT 9999 FEW042 SCT080 BKN160 04/02 Q0995 TEMPO 26020G40KT 2000 TSRAGS BKN010CB
  • 080130Z AUTO 23011KT CAVOK 04/02 Q0994 TEMPO 26020G40KT 2000 TSRAGS BKN010CB

TAF TAF LFRD
Valid from the 08 at 00:00 until the 09 at 00:00 UTC


072300Z 0800/0824 25010KT 9999 BKN030
TEMPO 0800/0820 26020G30KT 4000 SHRAGS BKN015CB
PROB40
TEMPO 0800/0818 26020G40KT 2000 TSRAGS BKN010CB
TEMPO 0820/0824 26020G30KT 4000 SHRA BKN020CB
ATIS : +33 2 99 16 81 50



MET'MAP, your aeronautical weather chart ! - Copyright ORBIFLY December 2007 - Disclaimer

ORBIFLY MET'MAP TEAM :

Programming & Development : Alexandra Zaïnal
Concept & original design : Baudouin d'Aumeries
Assistance for programming : Marc-Olivier Méhu
Technical & hardware support : Manuel Goepfert

Contact : metmap@orbifly.com




SOURCES & CREDITS :

   NOAA